createdAt,value
2018-11-03T00:00:02.829Z,7.5
2018-11-03T00:15:03.095Z,7.6
2018-11-03T00:30:03.813Z,7.4
2018-11-03T00:45:02.931Z,7.6
2018-11-03T01:00:03.183Z,7.6
2018-11-03T01:15:02.577Z,7.6
2018-11-03T01:30:03.010Z,7.6
2018-11-03T01:45:03.291Z,7.6
2018-11-03T02:00:02.917Z,7.6
2018-11-03T02:15:03.391Z,7.6
2018-11-03T02:30:02.729Z,7.6
2018-11-03T02:45:03.435Z,7.5
2018-11-03T03:00:02.806Z,7.6
2018-11-03T03:15:03.569Z,7.6
2018-11-03T03:30:02.499Z,7.5
2018-11-03T03:45:02.741Z,7.6
2018-11-03T04:00:03.140Z,7.6
2018-11-03T04:15:03.421Z,7.6
2018-11-03T04:30:02.984Z,7.5
2018-11-03T04:45:03.405Z,7.5
2018-11-03T05:00:02.629Z,7.4
2018-11-03T05:15:03.001Z,7.5
2018-11-03T05:30:03.375Z,7.5
2018-11-03T05:45:02.798Z,7.5
2018-11-03T06:00:03.004Z,7.5
2018-11-03T06:15:03.329Z,7.4
2018-11-03T06:30:02.902Z,7.6
2018-11-03T06:45:03.225Z,7.6
2018-11-03T07:00:02.595Z,7.8
2018-11-03T07:15:02.873Z,7.9
2018-11-03T07:30:03.288Z,8
2018-11-03T07:45:02.551Z,8.1
2018-11-03T08:00:03.142Z,8.4
2018-11-03T08:15:03.396Z,8.6
2018-11-03T08:30:02.732Z,8.9
2018-11-03T08:45:03.053Z,8.8
2018-11-03T09:00:02.630Z,8.9
2018-11-03T09:15:03.016Z,9.2
2018-11-03T09:30:02.610Z,9.4
2018-11-03T09:45:03.107Z,9.5
2018-11-03T10:00:02.513Z,9.6
2018-11-03T10:15:02.782Z,9.7
2018-11-03T10:30:03.301Z,9.8
2018-11-03T10:45:02.650Z,10.1
2018-11-03T11:00:03.169Z,10.4
2018-11-03T11:15:03.446Z,10.6
2018-11-03T11:30:02.824Z,10.4
2018-11-03T11:45:03.117Z,10.6
2018-11-03T12:00:02.422Z,10.6
2018-11-03T12:15:02.838Z,10.7
2018-11-03T12:30:03.208Z,10.8
2018-11-03T12:45:02.475Z,11
2018-11-03T13:00:02.873Z,11.1
2018-11-03T13:15:03.028Z,10.9
2018-11-03T13:30:03.446Z,10.9
2018-11-03T13:45:02.740Z,10.9
2018-11-03T14:00:02.997Z,10.9
2018-11-03T14:15:03.345Z,10.9
2018-11-03T14:30:02.669Z,10.6
2018-11-03T14:45:03.013Z,10.4
2018-11-03T15:00:03.312Z,10.2
2018-11-03T15:15:02.802Z,10.1
2018-11-03T15:30:03.336Z,10
2018-11-03T15:45:02.668Z,9.9
2018-11-03T16:00:02.984Z,9.8
2018-11-03T16:15:03.291Z,9.7
2018-11-03T16:30:02.651Z,9.7
2018-11-03T16:45:02.942Z,9.6
2018-11-03T17:00:03.298Z,9.7
2018-11-03T17:15:02.662Z,9.7
2018-11-03T17:30:03.062Z,9.6
2018-11-03T17:45:03.397Z,9.6
2018-11-03T18:00:02.624Z,9.6
2018-11-03T18:15:02.985Z,9.6
2018-11-03T18:30:03.399Z,9.5
2018-11-03T18:45:02.682Z,9.5
2018-11-03T19:00:03.001Z,9.6
2018-11-03T19:15:03.251Z,9.6
2018-11-03T19:30:02.649Z,9.5
2018-11-03T19:45:02.980Z,9.5
2018-11-03T20:00:03.291Z,9.5
2018-11-03T20:15:02.734Z,9.6
2018-11-03T20:30:03.117Z,9.6
2018-11-03T20:45:02.511Z,9.7
2018-11-03T21:00:02.690Z,9.7
2018-11-03T21:15:03.134Z,9.7
2018-11-03T21:30:02.479Z,9.6
2018-11-03T21:45:02.904Z,9.6
2018-11-03T22:00:03.095Z,9.6
2018-11-03T22:15:03.337Z,9.6
2018-11-03T22:30:02.893Z,9.6
2018-11-03T22:45:03.220Z,9.6
2018-11-03T23:00:02.482Z,9.6
2018-11-03T23:15:02.825Z,9.5
2018-11-03T23:30:02.591Z,9.5
2018-11-03T23:45:03.237Z,9.5
